createdAt,value
2018-10-06T00:02:04.685Z,98924.89
2018-10-06T00:05:27.406Z,98925.91
2018-10-06T00:08:50.026Z,98923.30
2018-10-06T00:12:12.628Z,98922.84
2018-10-06T00:15:34.988Z,98917.27
2018-10-06T00:18:57.566Z,98918.91
2018-10-06T00:22:20.301Z,98920.38
2018-10-06T00:25:43.001Z,98914.31
2018-10-06T00:29:05.671Z,98906.50
2018-10-06T00:32:29.918Z,98915.77
2018-10-06T00:35:52.448Z,98907.29
2018-10-06T00:39:14.920Z,98905.84
2018-10-06T00:42:37.376Z,98897.13
2018-10-06T00:46:00.096Z,98895.80
2018-10-06T00:49:22.553Z,98897.53
2018-10-06T00:52:45.049Z,98888.37
2018-10-06T00:56:07.520Z,98897.86
2018-10-06T00:59:30.253Z,98889.98
2018-10-06T01:02:52.702Z,98885.42
2018-10-06T01:06:15.284Z,98885.27
2018-10-06T01:09:39.223Z,98886.42
2018-10-06T01:13:03.885Z,98871.56
2018-10-06T01:16:26.545Z,98869.44
2018-10-06T01:19:49.068Z,98867.45
2018-10-06T01:23:14.816Z,98870.73
2018-10-06T01:26:37.692Z,98868.61
2018-10-06T01:30:00.386Z,98865.53
2018-10-06T01:33:24.159Z,98865.66
2018-10-06T01:36:47.568Z,98861.27
2018-10-06T01:40:10.240Z,98857.20
2018-10-06T01:43:33.006Z,98852.29
2018-10-06T01:46:55.916Z,98852.80
2018-10-06T01:50:19.644Z,98850.20
2018-10-06T01:53:42.277Z,98850.82
2018-10-06T01:57:04.809Z,98843.83
2018-10-06T02:00:27.436Z,98842.63
2018-10-06T02:03:49.959Z,98842.67
2018-10-06T02:07:12.578Z,98841.87
2018-10-06T02:10:35.152Z,98837.78
2018-10-06T02:13:57.893Z,98833.86
2018-10-06T02:17:20.480Z,98830.94
2018-10-06T02:20:43.207Z,98837.80
2018-10-06T02:24:05.768Z,98827.36
2018-10-06T02:27:28.341Z,98822.78
2018-10-06T02:30:50.783Z,98826.09
2018-10-06T02:34:13.525Z,98817.31
2018-10-06T02:37:35.953Z,98818.77
2018-10-06T02:40:58.565Z,98810.43
2018-10-06T02:44:22.382Z,98813.83
2018-10-06T02:47:44.910Z,98813.91
2018-10-06T02:51:07.365Z,98815.83
2018-10-06T02:54:29.819Z,98819.73
2018-10-06T02:57:52.456Z,98810.81
2018-10-06T03:01:16.039Z,98804.77
2018-10-06T03:04:38.676Z,98796.93
2018-10-06T03:08:01.207Z,98797.28
2018-10-06T03:11:23.628Z,98797.77
2018-10-06T03:14:46.107Z,98797.90
2018-10-06T03:18:08.753Z,98791.73
2018-10-06T03:21:31.299Z,98781.15
2018-10-06T03:24:53.756Z,98784.41
2018-10-06T03:28:16.208Z,98788.63
2018-10-06T03:31:38.599Z,98782.44
2018-10-06T03:35:00.945Z,98783.89
2018-10-06T03:38:23.413Z,98787.84
2018-10-06T03:41:46.004Z,98787.98
2018-10-06T03:45:08.518Z,98776.58
2018-10-06T03:49:34.079Z,98774.31
2018-10-06T03:52:56.441Z,98772.69
2018-10-06T03:56:19.079Z,98765.17
2018-10-06T03:59:42.041Z,98767.14
2018-10-06T04:03:04.531Z,98762.23
2018-10-06T04:06:27.166Z,98754.59
2018-10-06T04:09:49.758Z,98760.92
2018-10-06T04:13:12.358Z,98760.27
2018-10-06T04:16:34.882Z,98763.23
2018-10-06T04:19:57.451Z,98758.80
2018-10-06T04:23:19.874Z,98757.37
2018-10-06T04:26:42.361Z,98754.92
2018-10-06T04:30:05.370Z,98751.33
2018-10-06T04:33:27.964Z,98747.59
2018-10-06T04:36:50.519Z,98748.55
2018-10-06T04:40:13.060Z,98747.23
2018-10-06T04:43:35.579Z,98746.42
2018-10-06T04:46:58.157Z,98741.04
2018-10-06T04:50:21.381Z,98739.73
2018-10-06T04:53:43.913Z,98736.51
2018-10-06T04:57:08.510Z,98732.73
2018-10-06T05:00:30.997Z,98735.70
2018-10-06T05:03:53.743Z,98731.45
2018-10-06T05:07:17.334Z,98728.00
2018-10-06T05:10:39.812Z,98730.31
2018-10-06T05:14:02.253Z,98720.70
2018-10-06T05:17:25.013Z,98729.80
2018-10-06T05:20:47.611Z,98726.71
2018-10-06T05:24:10.173Z,98724.11
2018-10-06T05:27:33.441Z,98722.80
2018-10-06T05:30:57.105Z,98724.07
2018-10-06T05:34:20.698Z,98721.17
2018-10-06T05:37:43.441Z,98718.72
2018-10-06T05:41:06.010Z,98725.70
2018-10-06T05:44:28.638Z,98730.91
2018-10-06T05:47:51.427Z,98729.96
2018-10-06T05:51:14.044Z,98735.98
2018-10-06T05:54:36.599Z,98728.01
2018-10-06T05:57:59.363Z,98731.95
2018-10-06T06:01:21.778Z,98733.03
2018-10-06T06:04:44.183Z,98731.20
2018-10-06T06:08:06.817Z,98727.30
2018-10-06T06:11:29.341Z,98729.74
2018-10-06T06:14:51.880Z,98729.91
2018-10-06T06:18:18.459Z,98731.91
2018-10-06T06:21:41.094Z,98731.75
2018-10-06T06:25:03.813Z,98730.84
2018-10-06T06:28:26.411Z,98732.27
2018-10-06T06:31:49.362Z,98733.98
2018-10-06T06:35:11.894Z,98725.98
2018-10-06T06:38:34.361Z,98731.02
2018-10-06T06:41:56.881Z,98730.41
2018-10-06T06:45:19.534Z,98725.26
2018-10-06T06:48:42.068Z,98724.42
2018-10-06T06:52:05.100Z,98725.00
2018-10-06T06:55:27.618Z,98720.34
2018-10-06T06:58:50.237Z,98718.00
2018-10-06T07:02:13.015Z,98721.69
2018-10-06T07:05:35.480Z,98721.02
2018-10-06T07:08:57.995Z,98720.54
2018-10-06T07:12:20.454Z,98717.69
2018-10-06T07:15:43.040Z,98716.94
2018-10-06T07:19:06.800Z,98721.95
2018-10-06T07:22:29.654Z,98717.38
2018-10-06T07:25:52.328Z,98712.56
2018-10-06T07:29:14.942Z,98711.21
2018-10-06T07:32:37.388Z,98707.08
2018-10-06T07:36:01.030Z,98703.16
2018-10-06T07:39:23.909Z,98700.69
2018-10-06T07:42:46.441Z,98696.81
2018-10-06T07:46:08.761Z,98696.80
2018-10-06T07:49:31.138Z,98693.80
2018-10-06T07:52:53.766Z,98691.88
2018-10-06T07:56:16.294Z,98692.16
2018-10-06T07:59:38.722Z,98694.66
2018-10-06T08:03:01.169Z,98686.51
2018-10-06T08:06:23.803Z,98688.28
2018-10-06T08:09:46.291Z,98675.53
2018-10-06T08:13:08.811Z,98672.55
2018-10-06T08:16:31.294Z,98668.06
2018-10-06T08:19:54.264Z,98669.78
2018-10-06T08:23:16.737Z,98664.73
2018-10-06T08:26:39.253Z,98660.31
2018-10-06T08:30:01.748Z,98662.70
2018-10-06T08:33:24.389Z,98673.22
2018-10-06T08:36:46.976Z,98669.05
2018-10-06T08:40:09.504Z,98666.22
2018-10-06T08:43:32.059Z,98664.19
2018-10-06T08:46:55.532Z,98660.92
2018-10-06T08:51:21.662Z,98657.42
2018-10-06T08:54:44.216Z,98660.50
2018-10-06T08:58:07.008Z,98655.73
2018-10-06T09:01:29.676Z,98656.95
2018-10-06T09:04:52.385Z,98656.64
2018-10-06T09:08:14.974Z,98643.17
2018-10-06T09:11:37.580Z,98637.65
2018-10-06T09:15:00.492Z,98640.26
2018-10-06T09:18:23.128Z,98637.16
2018-10-06T09:21:46.228Z,98632.59
2018-10-06T09:25:09.670Z,98624.56
2018-10-06T09:28:33.139Z,98613.28
2018-10-06T09:31:55.875Z,98616.95
2018-10-06T09:35:18.431Z,98609.74
2018-10-06T09:38:40.980Z,98605.69
2018-10-06T09:42:03.500Z,98612.09
2018-10-06T09:45:26.247Z,98611.78
2018-10-06T09:48:48.828Z,98605.97
2018-10-06T09:52:11.431Z,98605.25
2018-10-06T09:55:34.019Z,98599.80
2018-10-06T09:58:56.540Z,98590.48
2018-10-06T10:02:24.688Z,98592.96
2018-10-06T10:05:49.471Z,98593.81
2018-10-06T10:09:14.337Z,98587.27
2018-10-06T10:12:36.937Z,98581.98
2018-10-06T10:15:59.301Z,98581.14
2018-10-06T10:19:21.756Z,98580.57
2018-10-06T10:22:44.286Z,98581.83
2018-10-06T10:26:13.550Z,98572.66
2018-10-06T10:29:36.261Z,98574.76
2018-10-06T10:32:58.819Z,98578.77
2018-10-06T10:36:21.930Z,98574.65
2018-10-06T10:39:45.569Z,98563.51
2018-10-06T10:43:08.050Z,98559.87
2018-10-06T10:46:30.638Z,98562.48
2018-10-06T10:49:53.181Z,98556.67
2018-10-06T10:53:16.619Z,98554.61
2018-10-06T10:56:39.180Z,98547.74
2018-10-06T11:00:02.088Z,98554.37
2018-10-06T11:03:24.213Z,98554.58
2018-10-06T11:06:46.663Z,98545.97
2018-10-06T11:10:09.272Z,98535.80
2018-10-06T11:13:31.788Z,98532.00
2018-10-06T11:16:54.437Z,98521.75
2018-10-06T11:20:17.751Z,98515.36
2018-10-06T11:23:40.387Z,98519.95
2018-10-06T11:27:03.129Z,98518.36
2018-10-06T11:30:25.691Z,98506.81
2018-10-06T11:33:48.227Z,98498.28
2018-10-06T11:37:11.701Z,98504.14
2018-10-06T11:40:34.375Z,98498.73
2018-10-06T11:43:56.906Z,98491.34
2018-10-06T11:47:19.474Z,98476.05
2018-10-06T11:50:41.914Z,98469.69
2018-10-06T11:54:04.532Z,98459.56
2018-10-06T11:57:27.341Z,98450.98
2018-10-06T12:00:50.884Z,98459.02
2018-10-06T12:04:13.514Z,98449.16
2018-10-06T12:07:36.085Z,98439.89
2018-10-06T12:10:58.575Z,98432.44
2018-10-06T12:14:21.188Z,98433.39
2018-10-06T12:17:43.755Z,98420.58
2018-10-06T12:21:06.397Z,98419.23
2018-10-06T12:24:29.065Z,98425.09
2018-10-06T12:27:51.759Z,98418.31
2018-10-06T12:31:14.390Z,98425.47
2018-10-06T12:34:37.140Z,98414.16
2018-10-06T12:38:00.028Z,98418.06
2018-10-06T12:41:22.652Z,98406.59
2018-10-06T12:44:48.753Z,98404.41
2018-10-06T12:48:11.403Z,98400.95
2018-10-06T12:51:34.044Z,98400.83
2018-10-06T12:54:56.561Z,98385.58
2018-10-06T12:58:19.309Z,98389.86
2018-10-06T13:01:41.900Z,98383.20
2018-10-06T13:05:04.511Z,98384.48
2018-10-06T13:08:26.978Z,98380.81
2018-10-06T13:11:49.601Z,98378.41
2018-10-06T13:15:12.021Z,98379.20
2018-10-06T13:18:34.513Z,98376.77
2018-10-06T13:21:57.330Z,98380.02
2018-10-06T13:25:19.991Z,98387.98
2018-10-06T13:28:42.705Z,98388.52
2018-10-06T13:32:05.286Z,98384.66
2018-10-06T13:35:27.733Z,98370.27
2018-10-06T13:38:50.359Z,98385.77
2018-10-06T13:42:12.876Z,98385.69
2018-10-06T13:45:35.250Z,98384.73
2018-10-06T13:48:57.835Z,98378.64
2018-10-06T13:52:20.310Z,98370.80
2018-10-06T13:55:42.958Z,98364.27
2018-10-06T13:59:05.788Z,98362.91
2018-10-06T14:02:28.378Z,98355.15
2018-10-06T14:05:51.098Z,98352.92
2018-10-06T14:09:13.584Z,98347.35
2018-10-06T14:12:37.316Z,98343.69
2018-10-06T14:15:59.904Z,98336.45
2018-10-06T14:19:22.340Z,98341.52
2018-10-06T14:22:45.230Z,98337.09
2018-10-06T14:26:08.335Z,98336.21
2018-10-06T14:29:30.769Z,98334.70
2018-10-06T14:32:54.727Z,98329.34
2018-10-06T14:36:17.146Z,98339.95
2018-10-06T14:43:24.977Z,98337.07
2018-10-06T14:46:47.599Z,98332.25
2018-10-06T14:50:10.350Z,98329.38
2018-10-06T14:53:33.464Z,98337.31
2018-10-06T14:56:56.152Z,98333.05
2018-10-06T15:00:18.579Z,98330.13
2018-10-06T15:03:41.371Z,98318.16
2018-10-06T15:07:04.448Z,98322.38
2018-10-06T15:10:27.952Z,98315.80
2018-10-06T15:13:51.218Z,98312.38
2018-10-06T15:17:14.216Z,98305.11
2018-10-06T15:20:37.280Z,98303.98
2018-10-06T15:24:00.116Z,98299.13
2018-10-06T15:27:23.289Z,98297.32
2018-10-06T15:30:46.297Z,98301.09
2018-10-06T15:34:08.922Z,98297.45
2018-10-06T15:37:31.353Z,98300.13
2018-10-06T15:40:53.905Z,98294.74
2018-10-06T15:44:16.417Z,98291.55
2018-10-06T15:47:39.060Z,98295.92
2018-10-06T15:51:01.675Z,98299.23
2018-10-06T15:54:24.190Z,98299.28
2018-10-06T15:57:46.827Z,98295.39
2018-10-06T16:01:09.470Z,98297.02
2018-10-06T16:04:32.056Z,98290.08
2018-10-06T16:07:55.528Z,98274.25
2018-10-06T16:11:18.017Z,98283.41
2018-10-06T16:14:40.728Z,98283.07
2018-10-06T16:18:03.350Z,98277.19
2018-10-06T16:21:25.890Z,98284.75
2018-10-06T16:24:48.641Z,98280.41
2018-10-06T16:28:11.334Z,98285.95
2018-10-06T16:31:34.425Z,98276.52
2018-10-06T16:34:57.348Z,98272.52
2018-10-06T16:38:19.849Z,98275.94
2018-10-06T16:41:42.291Z,98276.81
2018-10-06T16:45:05.873Z,98280.05
2018-10-06T16:48:28.358Z,98270.69
2018-10-06T16:51:51.020Z,98274.12
2018-10-06T16:55:13.631Z,98281.11
2018-10-06T16:58:36.253Z,98278.08
2018-10-06T17:01:58.978Z,98276.50
2018-10-06T17:05:21.446Z,98283.03
2018-10-06T17:08:44.033Z,98276.02
2018-10-06T17:12:06.517Z,98280.52
2018-10-06T17:15:29.356Z,98289.11
2018-10-06T17:18:51.953Z,98287.38
2018-10-06T17:22:14.426Z,98295.09
2018-10-06T17:25:37.063Z,98290.33
2018-10-06T17:29:00.147Z,98287.49
2018-10-06T17:32:22.806Z,98287.33
2018-10-06T17:35:45.406Z,98287.23
2018-10-06T17:39:08.081Z,98293.53
2018-10-06T17:42:30.619Z,98296.00
2018-10-06T17:45:53.394Z,98293.95
2018-10-06T17:49:16.152Z,98298.77
2018-10-06T17:52:38.759Z,98299.81
2018-10-06T17:56:01.682Z,98308.92
2018-10-06T17:59:24.626Z,98309.45
2018-10-06T18:02:47.148Z,98312.98
2018-10-06T18:06:09.749Z,98312.73
2018-10-06T18:09:32.385Z,98326.31
2018-10-06T18:12:55.121Z,98319.17
2018-10-06T18:16:17.671Z,98327.41
2018-10-06T18:19:40.043Z,98329.15
2018-10-06T18:23:02.629Z,98326.83
2018-10-06T18:26:25.133Z,98328.02
2018-10-06T18:29:47.691Z,98334.41
2018-10-06T18:33:10.510Z,98332.84
2018-10-06T18:36:33.963Z,98338.66
2018-10-06T18:39:56.418Z,98331.37
2018-10-06T18:43:19.140Z,98330.09
2018-10-06T18:46:41.635Z,98330.05
2018-10-06T18:50:04.302Z,98336.28
2018-10-06T18:53:27.224Z,98333.83
2018-10-06T18:56:50.233Z,98333.63
2018-10-06T19:00:14.754Z,98349.67
2018-10-06T19:03:37.664Z,98349.30
2018-10-06T19:07:00.262Z,98358.27
2018-10-06T19:10:22.924Z,98362.40
2018-10-06T19:13:45.552Z,98357.47
2018-10-06T19:17:08.667Z,98371.43
2018-10-06T19:20:31.318Z,98375.50
2018-10-06T19:23:54.185Z,98375.26
2018-10-06T19:27:16.621Z,98380.66
2018-10-06T19:30:39.486Z,98374.48
2018-10-06T19:34:01.989Z,98382.64
2018-10-06T19:37:24.486Z,98385.91
2018-10-06T19:40:47.184Z,98381.73
2018-10-06T19:44:10.103Z,98371.82
2018-10-06T19:47:33.191Z,98380.33
2018-10-06T19:50:55.672Z,98376.48
2018-10-06T19:54:18.092Z,98378.28
2018-10-06T19:57:40.623Z,98374.41
2018-10-06T20:01:03.213Z,98375.61
2018-10-06T20:04:25.760Z,98371.67
2018-10-06T20:07:48.288Z,98378.66
2018-10-06T20:11:11.879Z,98372.61
2018-10-06T20:14:34.500Z,98373.61
2018-10-06T20:17:57.082Z,98379.71
2018-10-06T20:21:20.035Z,98372.00
2018-10-06T20:24:42.733Z,98381.80
2018-10-06T20:28:05.662Z,98394.20
2018-10-06T20:31:28.447Z,98401.52
2018-10-06T20:34:51.402Z,98399.27
2018-10-06T20:38:17.269Z,98399.41
2018-10-06T20:41:40.348Z,98397.33
2018-10-06T20:45:03.182Z,98397.69
2018-10-06T20:48:26.105Z,98395.57
2018-10-06T20:51:50.326Z,98395.52
2018-10-06T20:55:14.327Z,98397.19
2018-10-06T20:58:37.581Z,98399.95
2018-10-06T21:02:02.313Z,98396.50
2018-10-06T21:05:25.805Z,98394.77
2018-10-06T21:08:48.773Z,98393.52
2018-10-06T21:12:12.354Z,98393.27
2018-10-06T21:15:36.535Z,98390.05
2018-10-06T21:19:31.916Z,98379.78
2018-10-06T21:22:58.144Z,98394.75
2018-10-06T21:26:22.110Z,98393.30
2018-10-06T21:29:46.118Z,98391.42
2018-10-06T21:33:11.881Z,98397.96
2018-10-06T21:36:34.788Z,98402.55
2018-10-06T21:39:59.597Z,98406.00
2018-10-06T21:43:22.571Z,98408.02
2018-10-06T21:46:45.774Z,98409.83
2018-10-06T21:50:09.641Z,98404.48
2018-10-06T21:53:32.566Z,98404.37
2018-10-06T21:56:55.512Z,98407.01
2018-10-06T22:00:28.617Z,98402.84
2018-10-06T22:03:53.109Z,98404.01
2018-10-06T22:07:17.728Z,98399.99
2018-10-06T22:10:40.610Z,98404.12
2018-10-06T22:14:03.489Z,98407.42
2018-10-06T22:17:25.981Z,98411.64
2018-10-06T22:20:52.885Z,98400.22
2018-10-06T22:24:16.505Z,98400.95
2018-10-06T22:27:39.968Z,98398.08
2018-10-06T22:31:03.226Z,98399.62
2018-10-06T22:34:26.091Z,98397.80
2018-10-06T22:37:49.621Z,98399.13
2018-10-06T22:41:12.554Z,98399.13
2018-10-06T22:44:35.111Z,98396.29
2018-10-06T22:47:58.652Z,98402.54
2018-10-06T22:51:21.529Z,98394.87
2018-10-06T22:54:44.321Z,98396.48
2018-10-06T22:58:07.096Z,98401.56
2018-10-06T23:01:29.920Z,98399.44
2018-10-06T23:04:52.541Z,98396.41
2018-10-06T23:08:18.071Z,98399.44
2018-10-06T23:11:44.573Z,98400.25
2018-10-06T23:15:22.315Z,98407.60
2018-10-06T23:18:44.849Z,98410.74
2018-10-06T23:22:07.460Z,98416.41
2018-10-06T23:25:30.187Z,98419.34
2018-10-06T23:28:52.766Z,98424.09
2018-10-06T23:32:16.706Z,98427.09
2018-10-06T23:35:39.862Z,98431.19
2018-10-06T23:39:03.292Z,98433.63
2018-10-06T23:42:26.294Z,98441.23
2018-10-06T23:45:49.426Z,98445.58
2018-10-06T23:49:13.266Z,98449.69
2018-10-06T23:52:36.038Z,98455.53
2018-10-06T23:56:00.717Z,98445.67
2018-10-06T23:59:23.381Z,98445.30
